sensor_id;sensor_type;location;lat;lon;timestamp;P1;durP1;ratioP1;P2;durP2;ratioP2
62832;SDS011;48891;49.220;6.920;2022-07-24T00:00:00;5.97;;;4.55;;
62832;SDS011;48891;49.220;6.920;2022-07-24T00:02:25;6.55;;;4.95;;
62832;SDS011;48891;49.220;6.920;2022-07-24T00:04:50;5.47;;;4.60;;
62832;SDS011;48891;49.220;6.920;2022-07-24T00:07:15;6.30;;;5.03;;
62832;SDS011;48891;49.220;6.920;2022-07-24T00:09:41;5.88;;;5.00;;
62832;SDS011;48891;49.220;6.920;2022-07-24T00:12:06;6.22;;;5.07;;
62832;SDS011;48891;49.220;6.920;2022-07-24T00:14:31;6.03;;;5.23;;
62832;SDS011;48891;49.220;6.920;2022-07-24T00:16:56;5.93;;;4.93;;
62832;SDS011;48891;49.220;6.920;2022-07-24T00:19:21;5.93;;;4.55;;
62832;SDS011;48891;49.220;6.920;2022-07-24T00:21:46;6.20;;;5.10;;
62832;SDS011;48891;49.220;6.920;2022-07-24T00:24:12;5.60;;;4.77;;
62832;SDS011;48891;49.220;6.920;2022-07-24T00:26:37;5.77;;;4.60;;
62832;SDS011;48891;49.220;6.920;2022-07-24T00:29:02;5.57;;;4.63;;
62832;SDS011;48891;49.220;6.920;2022-07-24T00:31:27;5.47;;;4.70;;
62832;SDS011;48891;49.220;6.920;2022-07-24T00:33:52;6.90;;;5.17;;
62832;SDS011;48891;49.220;6.920;2022-07-24T00:36:17;5.13;;;4.50;;
62832;SDS011;48891;49.220;6.920;2022-07-24T00:38:43;5.90;;;4.80;;
62832;SDS011;48891;49.220;6.920;2022-07-24T00:41:08;5.47;;;4.80;;
62832;SDS011;48891;49.220;6.920;2022-07-24T00:43:33;6.05;;;4.78;;
62832;SDS011;48891;49.220;6.920;2022-07-24T00:45:58;5.47;;;4.57;;
62832;SDS011;48891;49.220;6.920;2022-07-24T00:48:24;5.82;;;4.85;;
62832;SDS011;48891;49.220;6.920;2022-07-24T00:50:49;6.35;;;4.80;;
62832;SDS011;48891;49.220;6.920;2022-07-24T00:53:14;5.57;;;4.90;;
62832;SDS011;48891;49.220;6.920;2022-07-24T00:55:40;5.50;;;4.38;;
62832;SDS011;48891;49.220;6.920;2022-07-24T00:58:05;6.13;;;5.10;;
62832;SDS011;48891;49.220;6.920;2022-07-24T01:00:30;6.32;;;5.28;;
62832;SDS011;48891;49.220;6.920;2022-07-24T01:02:55;7.07;;;5.18;;
62832;SDS011;48891;49.220;6.920;2022-07-24T01:05:20;5.65;;;4.95;;
62832;SDS011;48891;49.220;6.920;2022-07-24T01:07:46;5.77;;;4.60;;
62832;SDS011;48891;49.220;6.920;2022-07-24T01:10:11;6.35;;;5.28;;
62832;SDS011;48891;49.220;6.920;2022-07-24T01:12:37;7.05;;;5.10;;
62832;SDS011;48891;49.220;6.920;2022-07-24T01:15:02;6.07;;;4.80;;
62832;SDS011;48891;49.220;6.920;2022-07-24T01:17:31;6.50;;;4.93;;
62832;SDS011;48891;49.220;6.920;2022-07-24T01:19:57;6.47;;;5.22;;
62832;SDS011;48891;49.220;6.920;2022-07-24T01:22:22;6.15;;;4.63;;
62832;SDS011;48891;49.220;6.920;2022-07-24T01:24:47;6.50;;;4.97;;
62832;SDS011;48891;49.220;6.920;2022-07-24T01:27:12;5.40;;;4.68;;
62832;SDS011;48891;49.220;6.920;2022-07-24T01:29:38;6.73;;;5.00;;
62832;SDS011;48891;49.220;6.920;2022-07-24T01:32:03;5.85;;;5.05;;
62832;SDS011;48891;49.220;6.920;2022-07-24T01:34:28;6.47;;;5.28;;
62832;SDS011;48891;49.220;6.920;2022-07-24T01:36:53;6.53;;;5.07;;
62832;SDS011;48891;49.220;6.920;2022-07-24T01:39:18;5.75;;;4.60;;
62832;SDS011;48891;49.220;6.920;2022-07-24T01:41:43;6.03;;;5.43;;
62832;SDS011;48891;49.220;6.920;2022-07-24T01:44:09;6.18;;;5.30;;
62832;SDS011;48891;49.220;6.920;2022-07-24T01:46:34;6.03;;;4.80;;
62832;SDS011;48891;49.220;6.920;2022-07-24T01:48:59;5.38;;;4.72;;
62832;SDS011;48891;49.220;6.920;2022-07-24T01:51:24;5.37;;;4.73;;
62832;SDS011;48891;49.220;6.920;2022-07-24T01:53:49;5.57;;;4.45;;
62832;SDS011;48891;49.220;6.920;2022-07-24T01:56:14;6.30;;;4.93;;
62832;SDS011;48891;49.220;6.920;2022-07-24T01:58:40;6.50;;;4.83;;
62832;SDS011;48891;49.220;6.920;2022-07-24T02:01:05;6.18;;;4.97;;
62832;SDS011;48891;49.220;6.920;2022-07-24T02:03:30;5.25;;;4.40;;
62832;SDS011;48891;49.220;6.920;2022-07-24T02:05:55;6.30;;;4.32;;
62832;SDS011;48891;49.220;6.920;2022-07-24T02:08:21;6.60;;;4.72;;
62832;SDS011;48891;49.220;6.920;2022-07-24T02:10:46;6.60;;;5.20;;
62832;SDS011;48891;49.220;6.920;2022-07-24T02:13:11;6.90;;;5.35;;
62832;SDS011;48891;49.220;6.920;2022-07-24T02:15:36;6.13;;;4.82;;
62832;SDS011;48891;49.220;6.920;2022-07-24T02:18:01;6.22;;;5.13;;
62832;SDS011;48891;49.220;6.920;2022-07-24T02:20:27;5.85;;;5.25;;
62832;SDS011;48891;49.220;6.920;2022-07-24T02:22:52;6.53;;;5.38;;
62832;SDS011;48891;49.220;6.920;2022-07-24T02:25:18;6.90;;;4.90;;
62832;SDS011;48891;49.220;6.920;2022-07-24T02:27:43;6.18;;;5.28;;
62832;SDS011;48891;49.220;6.920;2022-07-24T02:30:09;6.47;;;5.40;;
62832;SDS011;48891;49.220;6.920;2022-07-24T02:32:35;6.18;;;4.97;;
62832;SDS011;48891;49.220;6.920;2022-07-24T02:35:00;5.93;;;4.90;;
62832;SDS011;48891;49.220;6.920;2022-07-24T02:37:25;5.90;;;5.07;;
62832;SDS011;48891;49.220;6.920;2022-07-24T02:39:51;5.80;;;5.07;;
62832;SDS011;48891;49.220;6.920;2022-07-24T02:42:16;5.15;;;4.60;;
62832;SDS011;48891;49.220;6.920;2022-07-24T02:44:41;6.43;;;5.00;;
62832;SDS011;48891;49.220;6.920;2022-07-24T02:47:06;5.70;;;4.80;;
62832;SDS011;48891;49.220;6.920;2022-07-24T02:49:31;6.20;;;4.95;;
62832;SDS011;48891;49.220;6.920;2022-07-24T02:51:56;6.50;;;5.10;;
62832;SDS011;48891;49.220;6.920;2022-07-24T02:54:21;5.50;;;4.90;;
62832;SDS011;48891;49.220;6.920;2022-07-24T02:56:47;6.37;;;5.03;;
62832;SDS011;48891;49.220;6.920;2022-07-24T02:59:12;5.97;;;4.75;;
62832;SDS011;48891;49.220;6.920;2022-07-24T03:01:37;5.78;;;4.90;;
62832;SDS011;48891;49.220;6.920;2022-07-24T03:04:02;5.85;;;4.82;;
62832;SDS011;48891;49.220;6.920;2022-07-24T03:06:27;6.73;;;5.27;;
62832;SDS011;48891;49.220;6.920;2022-07-24T03:08:52;5.85;;;5.15;;
62832;SDS011;48891;49.220;6.920;2022-07-24T03:11:17;6.53;;;5.15;;
62832;SDS011;48891;49.220;6.920;2022-07-24T03:13:43;6.03;;;4.93;;
62832;SDS011;48891;49.220;6.920;2022-07-24T03:16:08;6.05;;;4.72;;
62832;SDS011;48891;49.220;6.920;2022-07-24T03:18:33;6.00;;;4.87;;
62832;SDS011;48891;49.220;6.920;2022-07-24T03:20:58;6.05;;;4.82;;
62832;SDS011;48891;49.220;6.920;2022-07-24T03:23:23;5.90;;;4.87;;
62832;SDS011;48891;49.220;6.920;2022-07-24T03:25:48;5.70;;;5.10;;
62832;SDS011;48891;49.220;6.920;2022-07-24T03:28:14;7.00;;;4.95;;
62832;SDS011;48891;49.220;6.920;2022-07-24T03:30:39;6.03;;;4.97;;
62832;SDS011;48891;49.220;6.920;2022-07-24T03:33:04;5.95;;;4.82;;
62832;SDS011;48891;49.220;6.920;2022-07-24T03:35:29;6.38;;;5.40;;
62832;SDS011;48891;49.220;6.920;2022-07-24T03:37:55;5.40;;;4.60;;
62832;SDS011;48891;49.220;6.920;2022-07-24T03:40:20;5.80;;;5.00;;
62832;SDS011;48891;49.220;6.920;2022-07-24T03:42:45;5.90;;;4.80;;
62832;SDS011;48891;49.220;6.920;2022-07-24T03:45:10;5.82;;;4.70;;
62832;SDS011;48891;49.220;6.920;2022-07-24T03:47:35;5.90;;;4.63;;
62832;SDS011;48891;49.220;6.920;2022-07-24T03:50:00;6.97;;;5.28;;
62832;SDS011;48891;49.220;6.920;2022-07-24T03:52:25;5.90;;;5.10;;
62832;SDS011;48891;49.220;6.920;2022-07-24T03:54:51;6.68;;;5.28;;
62832;SDS011;48891;49.220;6.920;2022-07-24T03:57:16;5.93;;;5.05;;
62832;SDS011;48891;49.220;6.920;2022-07-24T03:59:41;7.25;;;5.30;;
62832;SDS011;48891;49.220;6.920;2022-07-24T04:02:06;5.88;;;5.00;;
62832;SDS011;48891;49.220;6.920;2022-07-24T04:04:31;6.25;;;5.03;;
62832;SDS011;48891;49.220;6.920;2022-07-24T04:06:56;5.93;;;5.00;;
62832;SDS011;48891;49.220;6.920;2022-07-24T04:09:21;5.70;;;4.88;;
62832;SDS011;48891;49.220;6.920;2022-07-24T04:11:47;6.63;;;5.03;;
62832;SDS011;48891;49.220;6.920;2022-07-24T04:14:12;6.63;;;5.40;;
62832;SDS011;48891;49.220;6.920;2022-07-24T04:16:37;6.05;;;5.10;;
62832;SDS011;48891;49.220;6.920;2022-07-24T04:19:02;6.03;;;5.07;;
62832;SDS011;48891;49.220;6.920;2022-07-24T04:21:27;5.90;;;4.90;;
62832;SDS011;48891;49.220;6.920;2022-07-24T04:23:52;6.28;;;4.97;;
62832;SDS011;48891;49.220;6.920;2022-07-24T04:26:18;6.13;;;5.10;;
62832;SDS011;48891;49.220;6.920;2022-07-24T04:28:43;6.40;;;5.03;;
62832;SDS011;48891;49.220;6.920;2022-07-24T04:31:08;5.88;;;5.00;;
62832;SDS011;48891;49.220;6.920;2022-07-24T04:33:34;5.53;;;4.65;;
62832;SDS011;48891;49.220;6.920;2022-07-24T04:35:59;6.13;;;5.07;;
62832;SDS011;48891;49.220;6.920;2022-07-24T04:38:24;6.45;;;5.50;;
62832;SDS011;48891;49.220;6.920;2022-07-24T04:40:49;5.45;;;4.60;;
62832;SDS011;48891;49.220;6.920;2022-07-24T04:43:14;6.25;;;5.05;;
62832;SDS011;48891;49.220;6.920;2022-07-24T04:45:39;6.38;;;5.30;;
62832;SDS011;48891;49.220;6.920;2022-07-24T04:48:04;6.05;;;4.90;;
62832;SDS011;48891;49.220;6.920;2022-07-24T04:50:30;6.68;;;5.18;;
62832;SDS011;48891;49.220;6.920;2022-07-24T04:52:55;6.50;;;5.03;;
62832;SDS011;48891;49.220;6.920;2022-07-24T04:55:20;6.47;;;5.38;;
62832;SDS011;48891;49.220;6.920;2022-07-24T04:57:45;5.53;;;4.83;;
62832;SDS011;48891;49.220;6.920;2022-07-24T05:00:11;6.00;;;4.70;;
62832;SDS011;48891;49.220;6.920;2022-07-24T05:02:37;6.28;;;5.03;;
62832;SDS011;48891;49.220;6.920;2022-07-24T05:05:02;5.50;;;4.67;;
62832;SDS011;48891;49.220;6.920;2022-07-24T05:07:27;5.85;;;5.00;;
62832;SDS011;48891;49.220;6.920;2022-07-24T05:09:52;6.13;;;5.28;;
62832;SDS011;48891;49.220;6.920;2022-07-24T05:12:17;6.00;;;5.07;;
62832;SDS011;48891;49.220;6.920;2022-07-24T05:14:42;6.28;;;4.93;;
62832;SDS011;48891;49.220;6.920;2022-07-24T05:17:08;5.97;;;4.77;;
62832;SDS011;48891;49.220;6.920;2022-07-24T05:19:33;6.07;;;5.13;;
62832;SDS011;48891;49.220;6.920;2022-07-24T05:21:58;5.95;;;4.85;;
62832;SDS011;48891;49.220;6.920;2022-07-24T05:24:23;6.37;;;4.97;;
62832;SDS011;48891;49.220;6.920;2022-07-24T05:26:48;5.88;;;4.97;;
62832;SDS011;48891;49.220;6.920;2022-07-24T05:29:13;6.63;;;5.47;;
62832;SDS011;48891;49.220;6.920;2022-07-24T05:31:38;5.88;;;5.28;;
62832;SDS011;48891;49.220;6.920;2022-07-24T05:34:04;6.05;;;5.22;;
62832;SDS011;48891;49.220;6.920;2022-07-24T05:36:29;6.18;;;5.55;;
62832;SDS011;48891;49.220;6.920;2022-07-24T05:38:54;6.80;;;4.93;;
62832;SDS011;48891;49.220;6.920;2022-07-24T05:41:19;5.50;;;4.80;;
62832;SDS011;48891;49.220;6.920;2022-07-24T05:43:44;6.13;;;4.77;;
62832;SDS011;48891;49.220;6.920;2022-07-24T05:46:09;6.75;;;5.00;;
62832;SDS011;48891;49.220;6.920;2022-07-24T05:48:34;5.88;;;4.78;;
62832;SDS011;48891;49.220;6.920;2022-07-24T05:51:00;6.20;;;5.10;;
62832;SDS011;48891;49.220;6.920;2022-07-24T05:53:25;6.23;;;4.90;;
62832;SDS011;48891;49.220;6.920;2022-07-24T05:55:50;6.55;;;5.30;;
62832;SDS011;48891;49.220;6.920;2022-07-24T05:58:16;6.55;;;5.60;;
62832;SDS011;48891;49.220;6.920;2022-07-24T06:00:41;6.10;;;5.10;;
62832;SDS011;48891;49.220;6.920;2022-07-24T06:03:07;5.93;;;4.85;;
62832;SDS011;48891;49.220;6.920;2022-07-24T06:05:32;5.70;;;5.10;;
62832;SDS011;48891;49.220;6.920;2022-07-24T06:07:57;6.50;;;5.15;;
62832;SDS011;48891;49.220;6.920;2022-07-24T06:10:22;5.77;;;4.70;;
62832;SDS011;48891;49.220;6.920;2022-07-24T06:12:48;5.90;;;5.30;;
62832;SDS011;48891;49.220;6.920;2022-07-24T06:15:13;7.25;;;5.35;;
62832;SDS011;48891;49.220;6.920;2022-07-24T06:17:38;6.07;;;5.32;;
62832;SDS011;48891;49.220;6.920;2022-07-24T06:20:04;7.35;;;6.03;;
62832;SDS011;48891;49.220;6.920;2022-07-24T06:22:29;8.55;;;5.90;;
62832;SDS011;48891;49.220;6.920;2022-07-24T06:24:55;7.93;;;6.10;;
62832;SDS011;48891;49.220;6.920;2022-07-24T06:27:20;7.55;;;5.93;;
62832;SDS011;48891;49.220;6.920;2022-07-24T06:29:45;8.13;;;5.88;;
62832;SDS011;48891;49.220;6.920;2022-07-24T06:32:10;9.40;;;6.82;;
62832;SDS011;48891;49.220;6.920;2022-07-24T06:34:35;7.70;;;6.53;;
62832;SDS011;48891;49.220;6.920;2022-07-24T06:37:00;8.27;;;6.67;;
62832;SDS011;48891;49.220;6.920;2022-07-24T06:39:25;10.67;;;7.63;;
62832;SDS011;48891;49.220;6.920;2022-07-24T06:41:51;9.38;;;6.80;;
62832;SDS011;48891;49.220;6.920;2022-07-24T06:44:16;7.72;;;6.93;;
62832;SDS011;48891;49.220;6.920;2022-07-24T06:46:41;10.48;;;6.80;;
62832;SDS011;48891;49.220;6.920;2022-07-24T06:49:06;8.40;;;6.80;;
62832;SDS011;48891;49.220;6.920;2022-07-24T06:51:31;8.25;;;6.65;;
62832;SDS011;48891;49.220;6.920;2022-07-24T06:53:56;10.07;;;6.32;;
62832;SDS011;48891;49.220;6.920;2022-07-24T06:56:21;10.77;;;6.88;;
62832;SDS011;48891;49.220;6.920;2022-07-24T06:58:46;7.93;;;6.47;;
62832;SDS011;48891;49.220;6.920;2022-07-24T07:01:11;9.10;;;6.97;;
62832;SDS011;48891;49.220;6.920;2022-07-24T07:03:37;7.70;;;6.70;;
62832;SDS011;48891;49.220;6.920;2022-07-24T07:06:02;9.53;;;6.40;;
62832;SDS011;48891;49.220;6.920;2022-07-24T07:08:27;9.30;;;6.60;;
62832;SDS011;48891;49.220;6.920;2022-07-24T07:10:52;10.43;;;6.72;;
62832;SDS011;48891;49.220;6.920;2022-07-24T07:13:17;8.30;;;6.65;;
62832;SDS011;48891;49.220;6.920;2022-07-24T07:15:42;8.00;;;6.10;;
62832;SDS011;48891;49.220;6.920;2022-07-24T07:18:07;9.02;;;6.50;;
62832;SDS011;48891;49.220;6.920;2022-07-24T07:20:33;9.18;;;6.22;;
62832;SDS011;48891;49.220;6.920;2022-07-24T07:22:58;8.30;;;5.87;;
62832;SDS011;48891;49.220;6.920;2022-07-24T07:25:23;9.05;;;6.63;;
62832;SDS011;48891;49.220;6.920;2022-07-24T07:27:49;8.15;;;5.85;;
62832;SDS011;48891;49.220;6.920;2022-07-24T07:30:14;7.90;;;6.45;;
62832;SDS011;48891;49.220;6.920;2022-07-24T07:32:39;7.07;;;5.80;;
62832;SDS011;48891;49.220;6.920;2022-07-24T07:35:05;8.23;;;6.03;;
62832;SDS011;48891;49.220;6.920;2022-07-24T07:37:30;7.72;;;6.28;;
62832;SDS011;48891;49.220;6.920;2022-07-24T07:39:55;8.30;;;5.68;;
62832;SDS011;48891;49.220;6.920;2022-07-24T07:42:20;7.53;;;6.30;;
62832;SDS011;48891;49.220;6.920;2022-07-24T07:44:45;7.38;;;6.10;;
62832;SDS011;48891;49.220;6.920;2022-07-24T07:47:10;9.65;;;6.35;;
62832;SDS011;48891;49.220;6.920;2022-07-24T07:49:35;8.23;;;6.22;;
62832;SDS011;48891;49.220;6.920;2022-07-24T07:52:01;7.28;;;6.13;;
62832;SDS011;48891;49.220;6.920;2022-07-24T07:54:26;7.88;;;5.93;;
62832;SDS011;48891;49.220;6.920;2022-07-24T07:56:51;7.97;;;6.00;;
62832;SDS011;48891;49.220;6.920;2022-07-24T07:59:17;8.70;;;6.10;;
62832;SDS011;48891;49.220;6.920;2022-07-24T08:01:42;9.40;;;6.50;;
62832;SDS011;48891;49.220;6.920;2022-07-24T08:04:07;8.63;;;6.45;;
62832;SDS011;48891;49.220;6.920;2022-07-24T08:06:32;8.32;;;6.68;;
62832;SDS011;48891;49.220;6.920;2022-07-24T08:08:57;9.27;;;6.22;;
62832;SDS011;48891;49.220;6.920;2022-07-24T08:11:22;7.45;;;6.28;;
62832;SDS011;48891;49.220;6.920;2022-07-24T08:13:47;7.40;;;6.03;;
62832;SDS011;48891;49.220;6.920;2022-07-24T08:16:12;8.95;;;6.30;;
62832;SDS011;48891;49.220;6.920;2022-07-24T08:18:38;8.40;;;6.38;;
62832;SDS011;48891;49.220;6.920;2022-07-24T08:21:03;7.70;;;5.72;;
62832;SDS011;48891;49.220;6.920;2022-07-24T08:23:28;7.75;;;6.07;;
62832;SDS011;48891;49.220;6.920;2022-07-24T08:25:53;7.05;;;5.75;;
62832;SDS011;48891;49.220;6.920;2022-07-24T08:28:18;9.57;;;6.20;;
62832;SDS011;48891;49.220;6.920;2022-07-24T08:30:44;7.95;;;5.95;;
62832;SDS011;48891;49.220;6.920;2022-07-24T08:33:09;9.15;;;6.45;;
62832;SDS011;48891;49.220;6.920;2022-07-24T08:35:34;8.13;;;6.73;;
62832;SDS011;48891;49.220;6.920;2022-07-24T08:37:59;7.25;;;6.10;;
62832;SDS011;48891;49.220;6.920;2022-07-24T08:40:24;7.35;;;6.15;;
62832;SDS011;48891;49.220;6.920;2022-07-24T08:42:50;9.48;;;6.28;;
62832;SDS011;48891;49.220;6.920;2022-07-24T08:45:15;7.43;;;5.63;;
62832;SDS011;48891;49.220;6.920;2022-07-24T08:47:40;8.25;;;5.82;;
62832;SDS011;48891;49.220;6.920;2022-07-24T08:50:05;6.30;;;5.70;;
62832;SDS011;48891;49.220;6.920;2022-07-24T08:52:31;6.60;;;5.40;;
62832;SDS011;48891;49.220;6.920;2022-07-24T08:54:56;8.03;;;5.90;;
62832;SDS011;48891;49.220;6.920;2022-07-24T08:57:21;8.67;;;5.60;;
62832;SDS011;48891;49.220;6.920;2022-07-24T08:59:46;7.05;;;5.80;;
62832;SDS011;48891;49.220;6.920;2022-07-24T09:02:11;7.27;;;5.50;;
62832;SDS011;48891;49.220;6.920;2022-07-24T09:04:37;8.33;;;5.70;;
62832;SDS011;48891;49.220;6.920;2022-07-24T09:07:07;7.15;;;5.40;;
62832;SDS011;48891;49.220;6.920;2022-07-24T09:09:32;9.45;;;6.05;;
62832;SDS011;48891;49.220;6.920;2022-07-24T09:14:31;7.22;;;5.60;;
62832;SDS011;48891;49.220;6.920;2022-07-24T09:17:04;8.85;;;5.93;;
62832;SDS011;48891;49.220;6.920;2022-07-24T09:19:29;7.05;;;5.30;;
62832;SDS011;48891;49.220;6.920;2022-07-24T09:21:54;9.60;;;5.88;;
62832;SDS011;48891;49.220;6.920;2022-07-24T09:24:20;8.85;;;5.50;;
62832;SDS011;48891;49.220;6.920;2022-07-24T09:26:55;6.63;;;5.30;;
62832;SDS011;48891;49.220;6.920;2022-07-24T09:29:21;7.53;;;5.60;;
62832;SDS011;48891;49.220;6.920;2022-07-24T09:31:53;9.18;;;5.40;;
62832;SDS011;48891;49.220;6.920;2022-07-24T09:34:19;8.20;;;5.63;;
62832;SDS011;48891;49.220;6.920;2022-07-24T09:37:03;7.03;;;5.25;;
62832;SDS011;48891;49.220;6.920;2022-07-24T09:39:29;9.43;;;5.60;;
62832;SDS011;48891;49.220;6.920;2022-07-24T09:41:55;7.72;;;5.53;;
62832;SDS011;48891;49.220;6.920;2022-07-24T09:44:21;7.47;;;5.20;;
62832;SDS011;48891;49.220;6.920;2022-07-24T09:46:47;7.80;;;5.38;;
62832;SDS011;48891;49.220;6.920;2022-07-24T09:49:18;7.90;;;5.38;;
62832;SDS011;48891;49.220;6.920;2022-07-24T09:51:43;8.43;;;5.35;;
62832;SDS011;48891;49.220;6.920;2022-07-24T09:54:08;7.95;;;5.32;;
62832;SDS011;48891;49.220;6.920;2022-07-24T09:56:34;9.57;;;5.63;;
62832;SDS011;48891;49.220;6.920;2022-07-24T09:59:00;6.45;;;4.82;;
62832;SDS011;48891;49.220;6.920;2022-07-24T10:01:26;7.15;;;4.88;;
62832;SDS011;48891;49.220;6.920;2022-07-24T10:03:52;8.90;;;5.10;;
62832;SDS011;48891;49.220;6.920;2022-07-24T10:06:18;7.28;;;5.25;;
62832;SDS011;48891;49.220;6.920;2022-07-24T10:08:44;6.38;;;5.05;;
62832;SDS011;48891;49.220;6.920;2022-07-24T10:11:10;6.65;;;4.88;;
62832;SDS011;48891;49.220;6.920;2022-07-24T10:13:36;7.55;;;4.72;;
62832;SDS011;48891;49.220;6.920;2022-07-24T10:18:51;6.60;;;5.05;;
62832;SDS011;48891;49.220;6.920;2022-07-24T10:21:18;7.82;;;5.20;;
62832;SDS011;48891;49.220;6.920;2022-07-24T10:26:38;7.72;;;4.80;;
62832;SDS011;48891;49.220;6.920;2022-07-24T10:29:07;6.55;;;5.00;;
62832;SDS011;48891;49.220;6.920;2022-07-24T10:31:33;6.57;;;5.20;;
62832;SDS011;48891;49.220;6.920;2022-07-24T10:33:59;6.85;;;5.10;;
62832;SDS011;48891;49.220;6.920;2022-07-24T10:36:27;5.65;;;4.40;;
62832;SDS011;48891;49.220;6.920;2022-07-24T10:39:00;7.20;;;4.65;;
62832;SDS011;48891;49.220;6.920;2022-07-24T10:41:28;7.05;;;4.72;;
62832;SDS011;48891;49.220;6.920;2022-07-24T10:52:05;8.38;;;4.68;;
62832;SDS011;48891;49.220;6.920;2022-07-24T10:54:30;6.20;;;4.88;;
62832;SDS011;48891;49.220;6.920;2022-07-24T10:56:55;7.28;;;5.00;;
62832;SDS011;48891;49.220;6.920;2022-07-24T10:59:34;8.63;;;5.40;;
62832;SDS011;48891;49.220;6.920;2022-07-24T11:02:23;7.75;;;5.47;;
62832;SDS011;48891;49.220;6.920;2022-07-24T11:04:44;7.00;;;5.15;;
62832;SDS011;48891;49.220;6.920;2022-07-24T11:07:10;7.50;;;5.05;;
62832;SDS011;48891;49.220;6.920;2022-07-24T11:12:26;6.53;;;4.93;;
62832;SDS011;48891;49.220;6.920;2022-07-24T11:14:51;7.32;;;4.68;;
62832;SDS011;48891;49.220;6.920;2022-07-24T11:20:00;7.53;;;4.85;;
62832;SDS011;48891;49.220;6.920;2022-07-24T11:22:37;6.97;;;4.60;;
62832;SDS011;48891;49.220;6.920;2022-07-24T11:25:10;7.63;;;5.13;;
62832;SDS011;48891;49.220;6.920;2022-07-24T11:30:10;7.30;;;4.70;;
62832;SDS011;48891;49.220;6.920;2022-07-24T11:32:35;6.15;;;4.70;;
62832;SDS011;48891;49.220;6.920;2022-07-24T11:35:01;7.65;;;5.28;;
62832;SDS011;48891;49.220;6.920;2022-07-24T11:37:29;5.90;;;4.57;;
62832;SDS011;48891;49.220;6.920;2022-07-24T11:42:19;7.47;;;4.85;;
62832;SDS011;48891;49.220;6.920;2022-07-24T11:44:45;7.20;;;4.70;;
62832;SDS011;48891;49.220;6.920;2022-07-24T11:47:11;7.45;;;4.70;;
62832;SDS011;48891;49.220;6.920;2022-07-24T11:49:41;6.97;;;4.50;;
62832;SDS011;48891;49.220;6.920;2022-07-24T11:52:06;6.68;;;4.78;;
62832;SDS011;48891;49.220;6.920;2022-07-24T11:54:31;6.87;;;4.80;;
62832;SDS011;48891;49.220;6.920;2022-07-24T11:56:57;6.53;;;4.57;;
62832;SDS011;48891;49.220;6.920;2022-07-24T11:59:22;5.93;;;4.70;;
62832;SDS011;48891;49.220;6.920;2022-07-24T12:01:48;6.70;;;4.88;;
62832;SDS011;48891;49.220;6.920;2022-07-24T12:04:14;5.83;;;4.67;;
62832;SDS011;48891;49.220;6.920;2022-07-24T12:06:44;6.38;;;4.40;;
62832;SDS011;48891;49.220;6.920;2022-07-24T12:09:20;6.20;;;4.65;;
62832;SDS011;48891;49.220;6.920;2022-07-24T12:11:45;5.83;;;4.37;;
62832;SDS011;48891;49.220;6.920;2022-07-24T12:14:14;6.63;;;4.60;;
62832;SDS011;48891;49.220;6.920;2022-07-24T12:16:39;7.28;;;4.93;;
62832;SDS011;48891;49.220;6.920;2022-07-24T12:21:42;6.60;;;4.85;;
62832;SDS011;48891;49.220;6.920;2022-07-24T12:24:08;6.22;;;4.93;;
62832;SDS011;48891;49.220;6.920;2022-07-24T12:26:33;6.85;;;4.88;;
62832;SDS011;48891;49.220;6.920;2022-07-24T12:29:11;6.67;;;4.87;;
62832;SDS011;48891;49.220;6.920;2022-07-24T12:34:01;5.43;;;4.28;;
62832;SDS011;48891;49.220;6.920;2022-07-24T12:36:26;6.57;;;4.40;;
62832;SDS011;48891;49.220;6.920;2022-07-24T12:38:54;5.87;;;4.33;;
62832;SDS011;48891;49.220;6.920;2022-07-24T12:41:20;6.35;;;4.90;;
62832;SDS011;48891;49.220;6.920;2022-07-24T12:43:50;5.80;;;4.50;;
62832;SDS011;48891;49.220;6.920;2022-07-24T12:46:16;6.05;;;4.53;;
62832;SDS011;48891;49.220;6.920;2022-07-24T12:48:55;5.80;;;4.50;;
62832;SDS011;48891;49.220;6.920;2022-07-24T12:51:20;5.70;;;4.60;;
62832;SDS011;48891;49.220;6.920;2022-07-24T12:53:45;7.18;;;4.80;;
62832;SDS011;48891;49.220;6.920;2022-07-24T12:56:14;6.53;;;4.53;;
62832;SDS011;48891;49.220;6.920;2022-07-24T12:58:56;6.90;;;4.82;;
62832;SDS011;48891;49.220;6.920;2022-07-24T13:01:22;5.03;;;3.90;;
62832;SDS011;48891;49.220;6.920;2022-07-24T13:04:00;5.30;;;4.10;;
62832;SDS011;48891;49.220;6.920;2022-07-24T13:06:36;5.78;;;4.47;;
62832;SDS011;48891;49.220;6.920;2022-07-24T13:09:01;5.82;;;4.50;;
62832;SDS011;48891;49.220;6.920;2022-07-24T13:11:27;5.00;;;4.10;;
62832;SDS011;48891;49.220;6.920;2022-07-24T13:13:52;5.20;;;4.20;;
62832;SDS011;48891;49.220;6.920;2022-07-24T13:16:17;7.10;;;4.75;;
62832;SDS011;48891;49.220;6.920;2022-07-24T13:18:42;5.90;;;4.65;;
62832;SDS011;48891;49.220;6.920;2022-07-24T13:21:07;6.38;;;4.65;;
62832;SDS011;48891;49.220;6.920;2022-07-24T13:23:32;7.30;;;4.75;;
62832;SDS011;48891;49.220;6.920;2022-07-24T13:25:57;5.95;;;4.43;;
62832;SDS011;48891;49.220;6.920;2022-07-24T13:28:23;5.30;;;4.45;;
62832;SDS011;48891;49.220;6.920;2022-07-24T13:30:48;6.15;;;4.55;;
62832;SDS011;48891;49.220;6.920;2022-07-24T13:33:13;5.43;;;4.43;;
62832;SDS011;48891;49.220;6.920;2022-07-24T13:35:38;6.80;;;4.35;;
62832;SDS011;48891;49.220;6.920;2022-07-24T13:38:03;6.20;;;4.32;;
62832;SDS011;48891;49.220;6.920;2022-07-24T13:40:28;6.05;;;4.35;;
62832;SDS011;48891;49.220;6.920;2022-07-24T13:42:53;6.30;;;4.50;;
62832;SDS011;48891;49.220;6.920;2022-07-24T13:45:18;6.38;;;4.50;;
62832;SDS011;48891;49.220;6.920;2022-07-24T13:47:44;5.78;;;4.60;;
62832;SDS011;48891;49.220;6.920;2022-07-24T13:50:09;5.93;;;4.72;;
62832;SDS011;48891;49.220;6.920;2022-07-24T13:52:34;5.97;;;4.57;;
62832;SDS011;48891;49.220;6.920;2022-07-24T13:54:59;7.25;;;4.22;;
62832;SDS011;48891;49.220;6.920;2022-07-24T13:57:24;5.78;;;4.03;;
62832;SDS011;48891;49.220;6.920;2022-07-24T13:59:49;5.30;;;4.10;;
62832;SDS011;48891;49.220;6.920;2022-07-24T14:02:15;5.18;;;4.30;;
62832;SDS011;48891;49.220;6.920;2022-07-24T14:04:40;5.70;;;4.43;;
62832;SDS011;48891;49.220;6.920;2022-07-24T14:07:05;5.75;;;4.65;;
62832;SDS011;48891;49.220;6.920;2022-07-24T14:09:30;6.55;;;4.90;;
62832;SDS011;48891;49.220;6.920;2022-07-24T14:11:55;4.95;;;3.90;;
62832;SDS011;48891;49.220;6.920;2022-07-24T14:14:20;6.10;;;4.20;;
62832;SDS011;48891;49.220;6.920;2022-07-24T14:16:46;5.93;;;4.32;;
62832;SDS011;48891;49.220;6.920;2022-07-24T14:19:11;6.45;;;4.30;;
62832;SDS011;48891;49.220;6.920;2022-07-24T14:21:36;5.80;;;4.17;;
62832;SDS011;48891;49.220;6.920;2022-07-24T14:24:01;6.22;;;4.22;;
62832;SDS011;48891;49.220;6.920;2022-07-24T14:26:26;6.40;;;4.47;;
62832;SDS011;48891;49.220;6.920;2022-07-24T14:28:52;5.57;;;4.20;;
62832;SDS011;48891;49.220;6.920;2022-07-24T14:31:17;5.50;;;4.00;;
62832;SDS011;48891;49.220;6.920;2022-07-24T14:33:42;5.20;;;3.92;;
62832;SDS011;48891;49.220;6.920;2022-07-24T14:36:07;5.00;;;4.03;;
62832;SDS011;48891;49.220;6.920;2022-07-24T14:38:32;6.18;;;4.50;;
62832;SDS011;48891;49.220;6.920;2022-07-24T14:40:57;5.93;;;4.40;;
62832;SDS011;48891;49.220;6.920;2022-07-24T14:43:22;5.78;;;4.40;;
62832;SDS011;48891;49.220;6.920;2022-07-24T14:45:47;5.82;;;4.25;;
62832;SDS011;48891;49.220;6.920;2022-07-24T14:48:13;5.90;;;4.25;;
62832;SDS011;48891;49.220;6.920;2022-07-24T14:50:38;5.22;;;4.10;;
62832;SDS011;48891;49.220;6.920;2022-07-24T14:53:03;5.90;;;4.07;;
62832;SDS011;48891;49.220;6.920;2022-07-24T14:55:28;5.22;;;4.20;;
62832;SDS011;48891;49.220;6.920;2022-07-24T14:57:53;5.32;;;3.85;;
62832;SDS011;48891;49.220;6.920;2022-07-24T15:00:18;5.95;;;4.35;;
62832;SDS011;48891;49.220;6.920;2022-07-24T15:02:43;5.38;;;4.03;;
62832;SDS011;48891;49.220;6.920;2022-07-24T15:05:08;5.55;;;4.22;;
62832;SDS011;48891;49.220;6.920;2022-07-24T15:07:34;5.72;;;4.30;;
62832;SDS011;48891;49.220;6.920;2022-07-24T15:09:59;5.88;;;4.28;;